Time;durP1;ratioP1;P1;durP2;ratioP2;P2;SDS_P1;SDS_P2;PMS_P1;PMS_P2;Temp;Humidity;BMP_temperature;BMP_pressure;BME280_temperature;BME280_humidity;BME280_pressure;Samples;Min_cycle;Max_cycle;Signal;HPM_P1;HPM_P2
2021/10/23 00:00:55;;;;;;;2.14;0.70;;;;;;;7.91;91.76;100186.47;2334093;68;20245;-79
2021/10/23 00:03:58;;;;;;;2.05;0.74;;;;;;;7.90;91.69;100185.59;2335615;69;20362;-81
2021/10/23 00:07:01;;;;;;;4.24;0.80;;;;;;;7.89;91.76;100169.19;2338521;68;20319;-81
2021/10/23 00:10:04;;;;;;;1.99;0.70;;;;;;;7.90;91.84;100180.44;2332323;69;20274;-80
2021/10/23 00:13:08;;;;;;;2.83;0.63;;;;;;;7.92;91.84;100188.22;2344002;68;20311;-81
2021/10/23 00:16:10;;;;;;;2.72;0.74;;;;;;;7.95;91.78;100194.31;2346451;68;20267;-80
2021/10/23 00:19:13;;;;;;;6.81;1.50;;;;;;;7.95;91.74;100191.72;2340140;68;20272;-81
2021/10/23 00:22:16;;;;;;;3.51;0.74;;;;;;;7.96;91.81;100192.59;2339495;68;20320;-80
2021/10/23 00:25:19;;;;;;;3.50;0.80;;;;;;;7.96;91.90;100206.38;2333862;68;20366;-80
2021/10/23 00:28:22;;;;;;;3.00;0.74;;;;;;;8.00;91.83;100200.44;2343623;68;20313;-80
2021/10/23 00:31:25;;;;;;;1.73;1.06;;;;;;;8.02;91.65;100203.03;2333257;68;20278;-81
2021/10/23 00:34:28;;;;;;;2.99;0.90;;;;;;;8.04;91.55;100209.09;2344980;68;20323;-81
2021/10/23 00:37:31;;;;;;;4.60;0.74;;;;;;;8.06;91.41;100199.66;2338667;68;20253;-80
2021/10/23 00:40:33;;;;;;;3.09;1.05;;;;;;;8.05;91.45;100201.38;2330335;69;20266;-81
2021/10/23 00:43:38;;;;;;;5.34;1.60;;;;;;;8.04;91.53;100201.34;2352344;68;20301;-80
2021/10/23 00:46:41;;;;;;;6.10;1.64;;;;;;;8.07;91.37;100211.75;2333771;68;20292;-81
2021/10/23 00:49:45;;;;;;;5.21;2.00;;;;;;;8.08;91.21;100211.81;2336316;68;20261;-80
2021/10/23 00:52:49;;;;;;;3.69;1.44;;;;;;;8.07;91.20;100207.44;2335104;68;20316;-80
2021/10/23 00:55:52;;;;;;;5.54;1.75;;;;;;;8.09;91.19;100217.84;2339513;68;20372;-80
2021/10/23 00:58:54;;;;;;;8.27;1.91;;;;;;;8.05;91.04;100213.44;2344978;68;20307;-80
2021/10/23 01:01:58;;;;;;;3.53;1.51;;;;;;;8.02;91.27;100218.56;2339191;68;20297;-80
2021/10/23 01:05:02;;;;;;;6.45;1.40;;;;;;;7.99;91.32;100208.16;2345741;68;20351;-80
2021/10/23 01:08:05;;;;;;;3.56;0.90;;;;;;;7.96;91.51;100208.09;2349258;68;20387;-80
2021/10/23 01:11:08;;;;;;;7.47;1.29;;;;;;;7.94;91.53;100222.72;2341358;68;20233;-80
2021/10/23 01:14:17;;;;;;;2.25;0.90;;;;;;;7.93;91.60;100224.44;2338911;68;20366;-81
2021/10/23 01:21:36;;;;;;;1.95;1.17;;;;;;;7.87;91.96;100225.16;2347425;68;20336;-80
2021/10/23 01:24:38;;;;;;;4.53;1.15;;;;;;;7.86;92.03;100225.13;2344355;68;20264;-80
2021/10/23 01:27:41;;;;;;;3.50;1.16;;;;;;;7.87;92.15;100234.63;2339048;68;20448;-80
2021/10/23 01:30:44;;;;;;;5.31;1.46;;;;;;;7.85;92.29;100237.19;2341154;68;20293;-80
2021/10/23 01:33:47;;;;;;;6.30;1.06;;;;;;;7.86;92.18;100235.47;2346308;68;20260;-80
2021/10/23 01:36:55;;;;;;;4.84;1.13;;;;;;;7.85;92.07;100239.78;2343079;68;20248;-79
2021/10/23 01:39:58;;;;;;;4.30;1.09;;;;;;;7.82;91.92;100241.44;2336201;68;20284;-81
2021/10/23 01:43:02;;;;;;;3.67;0.94;;;;;;;7.80;92.08;100244.00;2343984;68;20173;-80
2021/10/23 01:46:06;;;;;;;3.30;0.96;;;;;;;7.77;92.13;100246.53;2340990;68;20294;-81
2021/10/23 01:49:09;;;;;;;1.45;0.73;;;;;;;7.75;92.23;100242.16;2339147;68;20262;-80
2021/10/23 01:52:12;;;;;;;3.41;0.80;;;;;;;7.75;92.45;100249.91;2337354;68;20281;-80
2021/10/23 01:55:16;;;;;;;5.11;0.79;;;;;;;7.77;92.51;100253.41;2350113;68;20270;-80
2021/10/23 01:58:20;;;;;;;2.39;0.90;;;;;;;7.77;92.60;100250.81;2341323;68;20256;-80
2021/10/23 02:01:22;;;;;;;3.80;0.80;;;;;;;7.79;92.60;100254.31;2341068;68;20306;-81
2021/10/23 02:04:25;;;;;;;2.35;1.21;;;;;;;7.78;92.58;100256.03;2341960;68;20256;-80
2021/10/23 02:07:28;;;;;;;2.83;0.90;;;;;;;7.76;92.69;100260.28;2341257;68;20293;-80
2021/10/23 02:10:32;;;;;;;2.72;0.90;;;;;;;7.76;92.64;100252.53;2336848;68;20324;-80
2021/10/23 02:13:34;;;;;;;4.65;0.94;;;;;;;7.74;92.64;100253.34;2357804;68;20241;-80
2021/10/23 02:16:37;;;;;;;2.78;0.81;;;;;;;7.73;92.65;100249.03;2341830;68;20256;-81
2021/10/23 02:19:40;;;;;;;2.79;0.70;;;;;;;7.71;92.63;100254.13;2345889;68;20261;-80
2021/10/23 02:22:43;;;;;;;2.49;0.90;;;;;;;7.69;92.64;100255.81;2339819;68;20368;-80
2021/10/23 02:25:46;;;;;;;5.05;0.95;;;;;;;7.67;92.54;100262.66;2344291;68;20249;-80
2021/10/23 02:28:48;;;;;;;4.63;0.91;;;;;;;7.67;92.59;100265.25;2330752;68;20285;-80
2021/10/23 02:31:51;;;;;;;3.50;0.99;;;;;;;7.69;92.71;100260.97;2349681;68;20249;-80
2021/10/23 02:34:54;;;;;;;3.54;1.10;;;;;;;7.71;92.65;100267.06;2351947;68;20335;-80
2021/10/23 02:37:57;;;;;;;3.95;1.40;;;;;;;7.71;92.67;100274.81;2357343;68;20343;-80
2021/10/23 02:40:59;;;;;;;4.64;1.20;;;;;;;7.70;92.70;100264.44;2338854;68;20237;-80
2021/10/23 02:44:02;;;;;;;3.28;0.93;;;;;;;7.63;92.50;100263.44;2343231;69;20320;-79
2021/10/23 02:47:05;;;;;;;3.49;1.17;;;;;;;7.60;92.50;100258.22;2348951;66;36831;-80
2021/10/23 02:50:09;;;;;;;1.74;0.85;;;;;;;7.56;92.39;100262.47;2329474;69;20272;-81
2021/10/23 02:53:11;;;;;;;2.14;0.86;;;;;;;7.51;92.40;100258.00;2351050;68;20285;-81
2021/10/23 02:56:14;;;;;;;1.81;1.06;;;;;;;7.49;92.45;100250.22;2340945;68;20341;-80
2021/10/23 02:59:16;;;;;;;3.03;0.93;;;;;;;7.47;92.52;100248.44;2337628;68;20286;-80
2021/10/23 03:02:19;;;;;;;3.08;0.95;;;;;;;7.47;92.62;100248.44;2344389;66;36568;-81
2021/10/23 03:05:22;;;;;;;2.66;1.00;;;;;;;7.45;92.73;100247.53;2356719;68;20307;-80
2021/10/23 03:08:25;;;;;;;3.99;1.01;;;;;;;7.43;92.62;100247.50;2352377;68;20241;-79
2021/10/23 03:11:27;;;;;;;3.75;1.08;;;;;;;7.39;92.57;100239.69;2341207;69;20289;-80
2021/10/23 03:14:30;;;;;;;10.49;1.16;;;;;;;7.35;92.59;100243.88;2349970;68;20301;-80
2021/10/23 03:17:32;;;;;;;3.19;0.90;;;;;;;7.31;92.59;100241.19;2356242;66;25897;-81
2021/10/23 03:20:35;;;;;;;3.11;1.00;;;;;;;7.27;92.50;100243.72;2342537;69;20244;-80
2021/10/23 03:23:38;;;;;;;1.51;1.15;;;;;;;7.20;92.41;100249.59;2347635;68;20377;-81
2021/10/23 03:26:41;;;;;;;3.42;1.00;;;;;;;7.15;92.50;100251.19;2338031;68;20249;-80
2021/10/23 03:29:45;;;;;;;3.90;0.80;;;;;;;7.11;92.57;100248.50;2341144;68;20297;-80
2021/10/23 03:32:48;;;;;;;2.47;0.80;;;;;;;7.09;92.67;100245.88;2337502;66;35613;-79
2021/10/23 03:35:50;;;;;;;2.35;0.85;;;;;;;7.07;92.74;100249.28;2345778;68;20273;-81
2021/10/23 03:38:53;;;;;;;6.90;0.89;;;;;;;7.01;92.58;100251.72;2342377;68;20299;-80
2021/10/23 03:41:56;;;;;;;5.45;0.85;;;;;;;6.97;92.59;100253.31;2342035;68;20260;-81
2021/10/23 03:44:58;;;;;;;2.09;0.77;;;;;;;6.94;92.63;100250.69;2348819;68;20293;-80
2021/10/23 03:48:01;;;;;;;2.64;0.82;;;;;;;6.93;92.67;100259.25;2346647;66;45455;-80
2021/10/23 03:51:04;;;;;;;2.90;0.70;;;;;;;6.93;92.93;100254.97;2356218;68;20244;-80
2021/10/23 03:54:06;;;;;;;4.74;0.95;;;;;;;6.94;93.14;100256.72;2338948;68;20294;-80
2021/10/23 03:57:09;;;;;;;1.05;0.64;;;;;;;6.96;93.27;100264.50;2343104;69;20288;-80
2021/10/23 04:00:13;;;;;;;1.54;0.95;;;;;;;6.98;93.44;100262.81;2338652;68;20241;-82
2021/10/23 04:03:15;;;;;;;2.25;0.77;;;;;;;6.98;93.50;100255.06;2343339;68;20288;-81
2021/10/23 04:06:18;;;;;;;1.29;0.73;;;;;;;6.98;93.60;100248.19;2343032;68;20261;-80
2021/10/23 04:09:20;;;;;;;6.29;2.13;;;;;;;6.97;93.62;100245.59;2338758;68;20324;-80
2021/10/23 04:12:24;;;;;;;3.29;1.01;;;;;;;7.00;93.76;100245.66;2351794;68;20266;-82
2021/10/23 04:15:26;;;;;;;4.16;0.95;;;;;;;7.02;93.73;100237.97;2338943;69;20288;-80
2021/10/23 04:18:29;;;;;;;3.51;1.16;;;;;;;7.03;93.69;100231.97;2343814;68;20258;-81
2021/10/23 04:21:32;;;;;;;1.56;0.80;;;;;;;7.04;93.55;100236.28;2343480;68;20274;-80
2021/10/23 04:24:35;;;;;;;5.18;0.85;;;;;;;7.03;93.29;100252.63;2360621;68;20270;-79
2021/10/23 04:27:38;;;;;;;3.22;1.70;;;;;;;6.97;93.11;100240.41;2338942;68;20240;-80
2021/10/23 04:30:40;;;;;;;6.03;1.08;;;;;;;6.92;92.98;100245.47;2338798;68;20380;-80
2021/10/23 04:33:43;;;;;;;3.41;0.80;;;;;;;6.83;92.76;100247.00;2354420;68;20380;-80
2021/10/23 04:36:47;;;;;;;3.45;1.20;;;;;;;6.78;92.71;100244.28;2341422;68;20264;-81
2021/10/23 04:39:49;;;;;;;6.06;1.15;;;;;;;6.74;92.78;100251.91;2337522;69;20319;-79
2021/10/23 04:42:52;;;;;;;3.91;0.70;;;;;;;6.74;92.85;100246.75;2345158;68;20248;-80
2021/10/23 04:45:54;;;;;;;3.03;0.80;;;;;;;6.73;92.97;100247.59;2344215;68;20256;-81
2021/10/23 04:48:58;;;;;;;2.81;0.73;;;;;;;6.68;92.84;100246.59;2361674;68;20352;-81
2021/10/23 04:52:00;;;;;;;2.53;0.80;;;;;;;6.64;92.95;100241.38;2342387;68;20237;-80
2021/10/23 04:55:03;;;;;;;3.10;0.70;;;;;;;6.60;92.98;100252.44;2359011;68;20253;-80
2021/10/23 04:58:06;;;;;;;1.75;0.90;;;;;;;6.58;93.04;100248.94;2349112;68;20301;-80
2021/10/23 05:01:09;;;;;;;4.93;0.76;;;;;;;6.57;93.16;100254.06;2343774;68;20248;-80
2021/10/23 05:04:12;;;;;;;4.18;0.90;;;;;;;6.51;92.92;100254.78;2354341;68;20282;-80
2021/10/23 05:07:15;;;;;;;2.24;0.80;;;;;;;6.46;92.85;100255.47;2342108;68;20248;-80
2021/10/23 05:10:18;;;;;;;1.23;0.73;;;;;;;6.39;92.80;100262.19;2340135;68;20335;-80
2021/10/23 05:13:21;;;;;;;5.29;0.90;;;;;;;6.34;92.74;100271.53;2347222;68;20269;-80
2021/10/23 05:16:23;;;;;;;1.84;0.85;;;;;;;6.25;92.41;100268.69;2340082;68;20252;-81
2021/10/23 05:19:26;;;;;;;3.19;1.01;;;;;;;6.17;92.44;100276.22;2337316;68;20270;-80
2021/10/23 05:22:29;;;;;;;3.33;0.85;;;;;;;6.13;92.39;100278.69;2347408;68;20293;-80
2021/10/23 05:25:32;;;;;;;2.56;0.89;;;;;;;6.04;92.17;100290.47;2344061;68;20270;-80
2021/10/23 05:28:35;;;;;;;3.04;0.86;;;;;;;5.92;92.08;100290.13;2339479;69;20248;-80
2021/10/23 05:31:38;;;;;;;4.91;0.98;;;;;;;5.87;92.24;100294.25;2334507;68;20244;-80
2021/10/23 05:34:40;;;;;;;1.98;0.85;;;;;;;5.80;92.39;100291.47;2347956;68;20297;-80
2021/10/23 05:37:44;;;;;;;2.94;0.70;;;;;;;5.73;92.33;100296.41;2354833;68;20283;-81
2021/10/23 05:40:46;;;;;;;2.71;1.04;;;;;;;5.67;92.25;100303.97;2333070;69;20411;-80
2021/10/23 05:43:49;;;;;;;2.56;0.86;;;;;;;5.64;92.16;100311.63;2340729;68;20252;-81
2021/10/23 05:46:51;;;;;;;2.96;0.93;;;;;;;5.62;92.18;100313.28;2335302;68;20256;-80
2021/10/23 05:49:54;;;;;;;1.27;0.80;;;;;;;5.62;92.25;100320.13;2340163;68;20268;-80
2021/10/23 05:52:57;;;;;;;3.74;0.73;;;;;;;5.56;92.10;100323.38;2344670;68;20274;-80
2021/10/23 05:56:00;;;;;;;3.26;0.98;;;;;;;5.52;91.81;100330.97;2341939;68;20315;-79
2021/10/23 05:59:12;;;;;;;2.36;0.81;;;;;;;5.46;91.45;100331.66;2337653;68;20328;-81
2021/10/23 06:02:33;;;;;;;4.45;1.01;;;;;;;5.41;91.39;100321.22;2346215;66;48327;-79
2021/10/23 06:05:36;;;;;;;2.22;0.90;;;;;;;5.39;91.67;100329.72;2343288;68;20274;-81
2021/10/23 06:12:27;;;;;;;3.61;1.14;;;;;;;5.32;92.22;100323.50;2320247;68;20300;-80
2021/10/23 06:15:30;;;;;;;5.43;1.17;;;;;;;5.31;92.62;100336.31;2348415;68;20304;-80
2021/10/23 06:18:33;;;;;;;2.25;1.13;;;;;;;5.33;92.75;100332.09;2340598;68;20292;-80
2021/10/23 09:27:26;;;;;;;3.58;1.60;;;;;;;10.76;83.39;100483.88;2339143;68;20097;-81
2021/10/23 09:30:50;;;;;;;5.03;2.99;;;;;;;10.84;82.74;100488.31;2349487;69;20150;-80
2021/10/23 09:33:59;;;;;;;4.97;2.06;;;;;;;10.94;82.60;100478.03;2330478;69;20151;-81
2021/10/23 09:37:03;;;;;;;;;;;;;;;11.05;81.83;100479.91;2329039;69;20118;-81
2021/10/23 09:40:21;;;;;;;6.36;1.73;;;;;;;11.13;81.45;100487.78;2335983;69;20101;-81
2021/10/23 09:43:29;;;;;;;5.13;1.60;;;;;;;11.18;79.87;100481.78;2332162;69;20226;-81
2021/10/23 09:46:31;;;;;;;6.50;1.85;;;;;;;11.27;79.78;100474.91;2332845;69;20146;-81
2021/10/23 09:49:34;;;;;;;6.57;1.90;;;;;;;11.36;78.79;100478.50;2315948;69;20193;-81
2021/10/23 09:53:00;;;;;;;6.69;2.05;;;;;;;11.49;78.82;100476.91;2321435;69;20129;-81
2021/10/23 09:56:08;;;;;;;5.59;1.79;;;;;;;11.65;78.08;100483.94;2324951;69;20105;-83
2021/10/23 09:59:12;;;;;;;;;;;;;;;11.84;78.11;100482.41;2322653;69;20232;-82
2021/10/23 10:02:27;;;;;;;4.56;1.34;;;;;;;11.99;77.18;100490.34;2320658;69;20060;-83
2021/10/23 10:05:53;;;;;;;5.51;1.58;;;;;;;12.12;76.34;100496.50;2320456;69;20216;-80
2021/10/23 10:09:33;;;;;;;6.74;1.48;;;;;;;12.23;75.40;100494.88;2330045;69;20141;-82
2021/10/23 10:13:49;;;;;;;5.09;1.39;;;;;;;12.34;75.41;100495.78;2339464;69;20141;-81
2021/10/23 10:17:46;;;;;;;4.46;1.58;;;;;;;12.37;74.02;100495.81;2317354;67;20111;-81
2021/10/23 10:22:07;;;;;;;7.43;1.80;;;;;;;12.51;74.21;100500.22;2306853;69;20170;-81
2021/10/23 10:25:34;;;;;;;7.54;1.70;;;;;;;12.61;72.90;100500.31;2309315;70;20220;-81
2021/10/23 10:29:24;;;;;;;6.01;1.47;;;;;;;12.77;73.48;100498.63;2307239;69;20104;-80
2021/10/23 10:33:19;;;;;;;9.07;2.56;;;;;;;12.87;73.36;100496.94;2293048;69;1001378;-81
2021/10/23 10:37:00;;;;;;;3.38;1.63;;;;;;;12.97;73.27;100491.75;2309078;69;20170;-80
2021/10/23 10:42:41;;;;;;;;;;;;;;;;;;;;;
2021/10/23 10:45:04;;;;;;;2.67;1.61;;;;;;;13.07;71.07;100478.75;2313815;69;20236;-81
2021/10/23 10:49:41;;;;;;;5.39;1.77;;;;;;;13.08;69.72;100481.34;2314030;69;20119;-81
2021/10/23 14:32:52;;;;;;;1.91;0.90;;;;;;;13.75;54.72;100431.91;2299543;69;20170;-78
2021/10/23 14:35:55;;;;;;;2.29;0.90;;;;;;;13.80;54.72;100424.06;2301643;69;20150;-78
2021/10/23 14:38:59;;;;;;;2.19;1.36;;;;;;;13.83;54.93;100427.56;2302235;69;20253;-79
2021/10/23 14:42:02;;;;;;;0.96;0.80;;;;;;;13.87;55.66;100428.44;2302195;69;20546;-79
2021/10/23 14:45:09;;;;;;;1.25;1.15;;;;;;;13.88;55.17;100423.19;2302281;69;20188;-79
2021/10/23 14:48:11;;;;;;;1.05;0.60;;;;;;;13.86;54.03;100427.56;2300127;66;23508;-79
2021/10/23 14:51:15;;;;;;;1.14;0.61;;;;;;;13.84;52.83;100421.47;2301417;69;20197;-79
2021/10/23 14:54:17;;;;;;;1.42;0.60;;;;;;;13.81;51.99;100424.06;2303913;69;20251;-79
2021/10/23 14:57:20;;;;;;;0.56;0.55;;;;;;;13.74;51.02;100422.34;2303377;69;20171;-79
2021/10/23 15:00:23;;;;;;;4.11;3.53;;;;;;;13.70;51.51;100424.97;2300527;69;20524;-79
2021/10/23 15:03:26;;;;;;;2.66;2.04;;;;;;;13.65;53.35;100418.88;2304902;69;20233;-79
2021/10/23 15:06:28;;;;;;;10.35;7.57;;;;;;;13.60;53.55;100416.25;2302705;69;20142;-79
2021/10/23 15:09:31;;;;;;;11.26;7.75;;;;;;;13.51;54.00;100413.66;2302101;69;20149;-79
2021/10/23 15:12:34;;;;;;;4.14;3.56;;;;;;;13.44;53.59;100407.53;2303129;69;20247;-79
2021/10/23 15:15:37;;;;;;;2.31;1.66;;;;;;;13.39;54.69;100404.06;2302503;67;21738;-79
2021/10/23 15:18:40;;;;;;;2.60;2.19;;;;;;;13.37;55.84;100402.34;2302765;69;20150;-79
2021/10/23 15:21:44;;;;;;;2.21;1.39;;;;;;;13.33;56.40;100417.13;2302830;69;20210;-79
2021/10/23 15:24:47;;;;;;;2.59;1.71;;;;;;;13.28;57.09;100413.63;2303632;69;20227;-78
2021/10/23 15:27:50;;;;;;;25.99;14.69;;;;;;;13.10;57.79;100413.56;2302785;69;20622;-79
2021/10/23 15:30:52;;;;;;;12.79;6.95;;;;;;;12.88;58.57;100410.91;2301830;67;22669;-79
2021/10/23 15:33:55;;;;;;;4.80;3.38;;;;;;;12.66;60.82;100409.13;2303243;69;20531;-79
2021/10/23 15:36:58;;;;;;;2.41;1.56;;;;;;;12.46;61.46;100410.78;2296495;69;20154;-79
2021/10/23 15:40:01;;;;;;;2.85;1.38;;;;;;;12.16;64.33;100406.28;2301995;69;20185;-78
2021/10/23 15:43:04;;;;;;;2.53;1.10;;;;;;;11.97;65.07;100406.16;2288099;69;20145;-78
2021/10/23 15:46:07;;;;;;;4.21;1.19;;;;;;;11.74;66.57;100405.13;2299138;67;32043;-79
2021/10/23 15:49:14;;;;;;;3.56;0.80;;;;;;;11.56;67.84;100407.59;2303238;69;20235;-79
2021/10/23 15:52:22;;;;;;;0.80;0.60;;;;;;;11.33;69.17;100397.88;2301468;69;20211;-79
2021/10/23 15:55:26;;;;;;;1.30;0.90;;;;;;;11.09;70.36;100401.09;2301638;69;20211;-78
2021/10/23 15:58:28;;;;;;;1.02;0.74;;;;;;;10.90;71.58;100402.63;2302220;69;20550;-78
2021/10/23 16:01:31;;;;;;;3.00;1.00;;;;;;;10.71;72.50;100397.22;2300082;67;22748;-79
2021/10/23 16:04:34;;;;;;;1.76;0.77;;;;;;;10.51;73.49;100399.59;2317423;69;20266;-79
2021/10/23 16:07:38;;;;;;;3.49;0.90;;;;;;;10.35;74.03;100400.25;2323693;69;20143;-79
2021/10/23 16:10:41;;;;;;;3.42;1.06;;;;;;;10.19;74.96;100397.44;2336655;69;20231;-80
2021/10/23 16:13:44;;;;;;;4.10;1.45;;;;;;;10.04;75.69;100398.94;2327782;69;20161;-80
2021/10/23 16:16:47;;;;;;;2.96;1.01;;;;;;;9.89;75.99;100400.50;2316990;67;48440;-80
2021/10/23 16:19:50;;;;;;;2.25;1.10;;;;;;;9.74;76.24;100391.59;2322830;69;20173;-79
2021/10/23 16:22:57;;;;;;;5.30;1.19;;;;;;;9.62;76.85;100395.75;2323006;69;20136;-79
2021/10/23 16:26:02;;;;;;;2.83;1.09;;;;;;;9.51;77.42;100399.88;2319505;69;20165;-79
2021/10/23 16:29:05;;;;;;;2.91;1.10;;;;;;;9.39;77.81;100397.09;2318052;69;20130;-81
2021/10/23 16:32:08;;;;;;;2.19;0.96;;;;;;;9.25;78.49;100398.59;2338617;66;30358;-79
2021/10/23 16:35:10;;;;;;;3.72;1.04;;;;;;;9.11;78.99;100400.94;2323047;69;20170;-78
2021/10/23 16:38:13;;;;;;;1.45;0.80;;;;;;;9.04;79.22;100399.97;2321326;69;20323;-79
2021/10/23 16:41:16;;;;;;;1.38;0.84;;;;;;;8.93;79.90;100403.19;2309511;69;20137;-84
2021/10/23 20:18:08;;;;;;;2.15;1.76;;;;;;;4.46;88.62;100420.06;2298787;69;20362;31
2021/10/23 20:21:11;;;;;;;3.72;2.11;;;;;;;4.43;88.58;100422.53;2306931;69;20343;-81
2021/10/23 20:24:14;;;;;;;3.85;2.15;;;;;;;4.40;88.49;100424.97;2303282;69;20300;-80
2021/10/23 20:27:16;;;;;;;2.36;2.00;;;;;;;4.42;88.66;100419.91;2311056;69;20274;-81
2021/10/23 20:30:19;;;;;;;3.78;2.28;;;;;;;4.39;88.71;100412.06;2311035;69;20277;-81
2021/10/23 20:33:22;;;;;;;4.32;2.29;;;;;;;4.37;88.81;100408.56;2305264;67;42028;-81
2021/10/23 20:36:25;;;;;;;4.54;2.19;;;;;;;4.34;88.77;100411.03;2313566;69;20273;-80
2021/10/23 20:39:28;;;;;;;2.76;2.54;;;;;;;4.29;88.75;100412.53;2309501;69;21369;-80
2021/10/23 20:42:38;;;;;;;3.13;2.61;;;;;;;4.26;88.78;100403.03;2303624;69;20253;-80
2021/10/23 20:49:11;;;;;;;4.10;2.70;;;;;;;4.16;88.55;100404.38;2309526;69;20268;-82
2021/10/23 20:52:14;;;;;;;3.53;2.79;;;;;;;4.12;88.62;100406.75;2319470;69;20290;-81
2021/10/23 20:55:17;;;;;;;4.91;2.39;;;;;;;4.11;88.72;100413.59;2321909;69;20244;-81
2021/10/23 21:06:29;;;;;;;5.60;2.97;;;;;;;4.04;89.27;100403.91;2324955;68;20270;-80
2021/10/23 21:09:32;;;;;;;3.33;2.72;;;;;;;4.08;89.52;100407.47;2325129;69;20281;-81
2021/10/23 21:12:35;;;;;;;5.11;3.46;;;;;;;4.05;89.27;100415.06;2333864;69;20274;-80
2021/10/23 21:15:37;;;;;;;4.86;3.58;;;;;;;4.03;89.47;100403.88;2333814;66;23715;-80
2021/10/23 21:18:41;;;;;;;5.20;3.83;;;;;;;3.97;89.33;100407.09;2325192;69;20258;-80
2021/10/23 21:21:43;;;;;;;6.03;3.95;;;;;;;3.92;89.39;100404.31;2331023;69;20245;-81
2021/10/23 21:24:46;;;;;;;3.60;3.03;;;;;;;3.93;89.63;100400.94;2324053;69;20297;-81
2021/10/23 21:27:49;;;;;;;7.41;3.13;;;;;;;3.88;89.44;100399.88;2327571;69;20450;-80
2021/10/23 21:30:51;;;;;;;4.47;2.51;;;;;;;3.84;89.46;100398.03;2328726;69;20246;-80
2021/10/23 21:33:54;;;;;;;3.97;2.75;;;;;;;3.81;89.53;100395.34;2329130;69;20417;-81
2021/10/23 21:36:57;;;;;;;4.41;2.71;;;;;;;3.83;89.75;100392.84;2330555;69;20307;-81
2021/10/23 21:40:00;;;;;;;3.53;2.36;;;;;;;3.86;89.96;100391.25;2331022;69;20253;-81
2021/10/23 21:43:03;;;;;;;6.74;2.24;;;;;;;3.86;89.96;100392.94;2335351;69;20285;-81
2021/10/23 21:46:06;;;;;;;3.46;2.25;;;;;;;3.81;90.11;100403.06;2331848;69;20243;-80
2021/10/23 21:49:09;;;;;;;6.29;2.42;;;;;;;3.80;90.18;100403.88;2327416;69;20394;-81
2021/10/23 21:52:11;;;;;;;3.38;2.42;;;;;;;3.75;90.07;100397.66;2332766;69;20487;-81
2021/10/23 21:55:14;;;;;;;4.71;2.42;;;;;;;3.79;90.48;100398.69;2332973;69;20250;-81
2021/10/23 21:58:16;;;;;;;3.97;2.47;;;;;;;3.78;90.29;100397.81;2335352;69;20261;-81
2021/10/23 22:01:19;;;;;;;2.70;1.92;;;;;;;3.76;90.46;100399.41;2328612;69;20301;-81
2021/10/23 22:04:22;;;;;;;4.15;2.20;;;;;;;3.74;90.78;100393.34;2329344;69;20271;-80
2021/10/23 22:07:25;;;;;;;4.07;2.28;;;;;;;3.77;91.01;100397.72;2328491;69;20295;-80
2021/10/23 22:10:28;;;;;;;2.84;2.11;;;;;;;3.76;91.02;100401.97;2329567;69;20273;-81
2021/10/23 22:13:31;;;;;;;3.64;2.08;;;;;;;3.79;90.97;100403.81;2329064;69;20305;-80
2021/10/23 22:16:34;;;;;;;4.38;2.67;;;;;;;3.74;90.83;100402.72;2324770;66;23636;-80
2021/10/23 22:19:36;;;;;;;3.39;2.54;;;;;;;3.72;91.05;100399.22;2334716;69;20651;-80
2021/10/23 22:22:39;;;;;;;6.34;2.78;;;;;;;3.68;91.11;100400.81;2322420;69;20297;-80
2021/10/23 22:25:46;;;;;;;4.56;3.17;;;;;;;3.63;90.78;100399.75;2327722;69;20305;-80
2021/10/23 22:28:49;;;;;;;6.11;3.69;;;;;;;3.60;91.19;100391.94;2335292;69;20375;-80
2021/10/23 22:31:51;;;;;;;7.16;4.71;;;;;;;3.53;90.95;100393.38;2332517;66;24785;-80
2021/10/23 22:34:55;;;;;;;9.21;4.45;;;;;;;3.51;90.74;100389.00;2329272;69;20265;-80
2021/10/23 22:37:58;;;;;;;9.10;5.10;;;;;;;3.49;90.81;100388.06;2331020;69;20266;-80
2021/10/23 22:41:01;;;;;;;5.22;3.81;;;;;;;3.42;90.48;100389.53;2333859;69;20402;-80
2021/10/23 22:44:04;;;;;;;6.81;4.20;;;;;;;3.39;90.83;100385.94;2331702;69;20250;-80
2021/10/23 22:47:06;;;;;;;7.97;3.74;;;;;;;3.42;91.04;100388.66;2326218;66;41100;-81
2021/10/23 22:50:09;;;;;;;5.05;3.65;;;;;;;3.36;90.96;100379.00;2328417;69;20282;-80
2021/10/23 22:53:12;;;;;;;5.59;3.78;;;;;;;3.33;91.05;100379.75;2327077;69;20270;-80
2021/10/23 22:56:14;;;;;;;3.46;2.58;;;;;;;3.32;91.10;100385.69;2336730;69;20289;-80
2021/10/23 22:59:17;;;;;;;3.35;2.61;;;;;;;3.29;91.10;100377.88;2330955;69;20308;-80
2021/10/23 23:02:20;;;;;;;6.40;3.20;;;;;;;3.27;91.45;100378.63;2329983;66;32567;-81
2021/10/23 23:05:22;;;;;;;5.05;2.89;;;;;;;3.29;91.66;100385.56;2334722;69;20258;-80
2021/10/23 23:08:32;;;;;;;7.70;3.20;;;;;;;3.29;91.49;100375.31;2329136;69;20250;-81
2021/10/23 23:11:35;;;;;;;4.46;3.10;;;;;;;3.27;91.40;100370.94;2321011;69;20269;-81
2021/10/23 23:14:39;;;;;;;4.91;3.13;;;;;;;3.24;91.37;100366.56;2330619;69;20287;-81
2021/10/23 23:17:41;;;;;;;4.82;3.19;;;;;;;3.30;91.51;100371.06;2328454;66;37190;-80
2021/10/23 23:20:44;;;;;;;4.82;2.74;;;;;;;3.27;91.35;100368.38;2328629;69;20342;-81
2021/10/23 23:23:46;;;;;;;4.36;3.05;;;;;;;3.27;91.38;100373.50;2333241;69;20362;-81
2021/10/23 23:26:49;;;;;;;3.17;2.46;;;;;;;3.23;91.48;100366.47;2330310;69;20283;-81
2021/10/23 23:29:52;;;;;;;2.61;2.36;;;;;;;3.23;91.48;100369.03;2331140;69;20312;-81
2021/10/23 23:32:54;;;;;;;5.01;1.99;;;;;;;3.22;91.38;100362.16;2316570;66;32411;-79
2021/10/23 23:35:58;;;;;;;3.55;2.17;;;;;;;3.19;91.35;100362.91;2324717;69;20294;-80
2021/10/23 23:39:01;;;;;;;2.71;2.03;;;;;;;3.18;91.38;100361.16;2320082;69;20290;-80
2021/10/23 23:42:03;;;;;;;3.47;2.53;;;;;;;3.16;91.31;100361.91;2320628;69;20298;-80
2021/10/23 23:45:07;;;;;;;4.14;2.28;;;;;;;3.11;90.98;100363.41;2328136;69;20346;-80
2021/10/23 23:48:09;;;;;;;3.63;2.13;;;;;;;3.10;91.08;100366.81;2326099;69;20333;-80
2021/10/23 23:51:12;;;;;;;3.54;1.98;;;;;;;3.09;90.90;100362.50;2329193;69;20263;-81
2021/10/23 23:54:15;;;;;;;3.83;2.30;;;;;;;3.02;90.52;100364.78;2328878;69;20354;-80
2021/10/23 23:57:18;;;;;;;3.91;1.90;;;;;;;2.95;90.61;100357.66;2326551;69;20317;-80
